createdAt,value
2019-03-08T00:01:17.832Z,44.36
2019-03-08T00:05:23.666Z,44.48
2019-03-08T00:09:29.363Z,44.51
2019-03-08T00:13:35.077Z,44.62
2019-03-08T00:17:40.911Z,44.63
2019-03-08T00:21:48.118Z,44.95
2019-03-08T00:25:53.796Z,44.86
2019-03-08T00:29:59.560Z,44.65
2019-03-08T00:34:05.427Z,44.83
2019-03-08T00:38:11.192Z,45.08
2019-03-08T00:42:17.027Z,44.63
2019-03-08T00:46:22.718Z,44.73
2019-03-08T00:50:28.437Z,44.41
2019-03-08T00:54:36.249Z,44.25
2019-03-08T00:58:41.921Z,44.67
2019-03-08T01:02:47.607Z,44.88
2019-03-08T01:06:53.363Z,44.63
2019-03-08T01:10:59.277Z,44.62
2019-03-08T01:15:09.270Z,44.38
2019-03-08T01:19:14.958Z,44.44
2019-03-08T01:23:20.794Z,44.79
2019-03-08T01:27:26.489Z,44.74
2019-03-08T01:31:32.460Z,44.90
2019-03-08T01:35:38.295Z,45.19
2019-03-08T01:39:43.990Z,44.90
2019-03-08T01:43:49.684Z,44.82
2019-03-08T01:47:57.570Z,44.94
2019-03-08T01:52:03.501Z,44.76
2019-03-08T01:56:10.811Z,45.21
2019-03-08T02:00:20.470Z,45.13
2019-03-08T02:04:27.264Z,45.10
2019-03-08T02:08:34.130Z,45.13
2019-03-08T02:12:39.829Z,45.36
2019-03-08T02:16:45.529Z,45.96
2019-03-08T02:20:52.284Z,47.20
2019-03-08T02:24:58.257Z,48.69
2019-03-08T02:29:03.946Z,48.99
2019-03-08T02:33:09.915Z,49.48
2019-03-08T02:37:15.597Z,50.46
2019-03-08T02:41:21.297Z,51.59
2019-03-08T02:45:27.054Z,51.63
2019-03-08T02:49:32.827Z,51.60
2019-03-08T02:53:38.523Z,51.80
2019-03-08T02:57:44.222Z,51.95
2019-03-08T03:01:49.898Z,51.79
2019-03-08T03:05:55.585Z,51.90
2019-03-08T03:10:02.294Z,51.57
2019-03-08T03:14:08.054Z,51.68
2019-03-08T03:18:13.782Z,51.07
2019-03-08T03:22:19.490Z,51.04
2019-03-08T03:26:25.260Z,50.53
2019-03-08T03:30:31.031Z,50.90
2019-03-08T03:34:36.723Z,51.58
2019-03-08T03:38:42.414Z,51.41
2019-03-08T03:42:48.337Z,50.99
2019-03-08T03:46:54.027Z,51.33
2019-03-08T03:50:59.872Z,51.33
2019-03-08T03:55:14.717Z,51.61
2019-03-08T03:59:20.404Z,52.12
2019-03-08T04:03:26.377Z,51.92
2019-03-08T04:07:32.072Z,52.73
2019-03-08T04:11:37.807Z,52.28
2019-03-08T04:15:43.524Z,51.93
2019-03-08T04:19:49.315Z,52.71
2019-03-08T04:23:55.252Z,52.04
2019-03-08T04:28:01.061Z,53.15
2019-03-08T04:32:06.754Z,53.24
2019-03-08T04:36:12.435Z,53.75
2019-03-08T04:40:18.115Z,53.71
2019-03-08T04:44:23.794Z,54.27
2019-03-08T04:48:29.479Z,55.18
2019-03-08T04:52:35.221Z,55.06
2019-03-08T04:56:40.903Z,54.67
2019-03-08T05:00:46.602Z,55.06
2019-03-08T05:04:52.359Z,56.56
2019-03-08T05:08:58.048Z,55.67
2019-03-08T05:13:03.718Z,56.36
2019-03-08T05:17:10.363Z,56.09
2019-03-08T05:21:16.049Z,55.30
2019-03-08T05:25:21.732Z,55.20
2019-03-08T05:29:27.410Z,54.01
2019-03-08T05:33:33.069Z,54.29
2019-03-08T05:37:39.742Z,54.50
2019-03-08T05:41:45.610Z,54.53
2019-03-08T05:45:51.302Z,54.22
2019-03-08T05:49:57.134Z,54.40
2019-03-08T05:54:02.820Z,54.40
2019-03-08T05:58:08.535Z,53.91
2019-03-08T06:02:14.222Z,53.97
2019-03-08T06:06:19.914Z,53.48
2019-03-08T06:10:31.369Z,52.60
2019-03-08T06:14:37.041Z,53.74
2019-03-08T06:18:42.741Z,53.78
2019-03-08T06:22:48.452Z,53.68
2019-03-08T06:26:54.126Z,54.05
2019-03-08T06:31:00.068Z,53.55
2019-03-08T06:35:07.364Z,53.70
2019-03-08T06:39:13.038Z,52.88
2019-03-08T06:43:18.735Z,52.50
2019-03-08T06:47:24.417Z,52.54
2019-03-08T06:51:30.154Z,52.64
2019-03-08T06:55:35.847Z,53.38
2019-03-08T06:59:43.352Z,53.02
2019-03-08T07:03:49.040Z,53.02
2019-03-08T07:07:54.743Z,53.66
2019-03-08T07:12:00.401Z,53.91
2019-03-08T07:16:12.786Z,53.85
2019-03-08T07:20:31.062Z,53.31
2019-03-08T07:24:38.396Z,51.62
2019-03-08T07:29:00.699Z,51.65
2019-03-08T07:33:08.060Z,51.52
2019-03-08T07:37:30.998Z,51.78
2019-03-08T07:41:41.193Z,52.41
2019-03-08T07:45:48.529Z,50.61
2019-03-08T07:49:55.872Z,49.01
2019-03-08T07:54:03.183Z,46.69
2019-03-08T07:58:13.520Z,45.32
2019-03-08T08:02:20.853Z,46.78
2019-03-08T08:06:28.303Z,47.22
2019-03-08T08:10:38.380Z,48.73
2019-03-08T08:14:48.427Z,49.06
2019-03-08T08:19:04.908Z,47.93
2019-03-08T08:23:15.383Z,47.89
2019-03-08T08:27:22.720Z,47.45
2019-03-08T08:31:44.812Z,47.28
2019-03-08T08:36:07.198Z,47.78
2019-03-08T08:40:15.676Z,47.33
2019-03-08T08:44:23.006Z,47.58
2019-03-08T08:48:28.509Z,46.78
2019-03-08T08:52:37.019Z,47.39
2019-03-08T08:56:53.514Z,46.67
2019-03-08T09:01:04.835Z,45.94
2019-03-08T09:05:18.242Z,44.75
2019-03-08T09:09:34.618Z,43.99
2019-03-08T09:13:44.658Z,42.30
2019-03-08T09:17:52.011Z,40.34
2019-03-08T09:22:03.363Z,39.43
2019-03-08T09:26:26.915Z,37.56
2019-03-08T09:30:37.425Z,37.50
2019-03-08T09:34:44.762Z,38.68
2019-03-08T09:39:01.279Z,40.02
2019-03-08T09:43:19.553Z,38.10
2019-03-08T09:47:44.565Z,38.03
2019-03-08T09:52:00.789Z,39.77
2019-03-08T09:56:17.389Z,39.58
2019-03-08T10:00:31.367Z,39.24
2019-03-08T10:04:54.368Z,38.30
2019-03-08T10:09:01.702Z,36.84
2019-03-08T10:13:13.626Z,35.48
2019-03-08T10:17:36.945Z,36.34
2019-03-08T10:21:44.282Z,36.27
2019-03-08T10:25:55.477Z,35.60
2019-03-08T10:30:05.797Z,36.34
2019-03-08T10:34:22.832Z,35.98
2019-03-08T10:38:36.158Z,34.23
2019-03-08T10:42:50.980Z,35.36
2019-03-08T10:47:10.419Z,34.44
2019-03-08T10:51:22.086Z,32.21
2019-03-08T10:55:41.811Z,31.16
2019-03-08T10:59:52.203Z,31.78
2019-03-08T11:04:15.330Z,32.70
2019-03-08T11:08:37.933Z,31.20
2019-03-08T11:12:54.353Z,30.66
2019-03-08T11:17:07.406Z,29.62
2019-03-08T11:21:20.540Z,26.91
2019-03-08T11:25:43.795Z,25.53
2019-03-08T11:30:07.352Z,24.10
2019-03-08T11:34:17.514Z,23.17
2019-03-08T11:38:24.891Z,21.16
2019-03-08T11:42:40.892Z,20.38
2019-03-08T11:47:00.223Z,23.77
2019-03-08T11:51:24.230Z,22.81
2019-03-08T11:55:41.589Z,23.15
2019-03-08T11:59:48.918Z,23.73
2019-03-08T12:04:12.016Z,23.49
2019-03-08T12:08:24.886Z,25.16
2019-03-08T12:12:46.486Z,26.23
2019-03-08T12:17:09.713Z,25.83
2019-03-08T12:21:15.215Z,27.70
2019-03-08T12:25:22.920Z,26.81
2019-03-08T12:29:48.027Z,26.09
2019-03-08T12:33:58.354Z,26.93
2019-03-08T12:38:08.092Z,26.62
2019-03-08T12:42:18.191Z,26.15
2019-03-08T12:46:30.273Z,24.65
2019-03-08T12:50:40.549Z,25.61
2019-03-08T12:55:04.164Z,25.56
2019-03-08T12:59:11.497Z,25.91
2019-03-08T13:03:35.164Z,26.87
2019-03-08T13:07:54.245Z,27.91
2019-03-08T13:12:00.046Z,29.62
2019-03-08T13:16:05.971Z,30.04
2019-03-08T13:20:17.823Z,31.74
2019-03-08T13:24:23.506Z,31.03
2019-03-08T13:28:29.210Z,31.86
2019-03-08T13:32:34.904Z,32.18
2019-03-08T13:36:40.609Z,30.21
2019-03-08T13:40:46.304Z,30.32
2019-03-08T13:44:51.981Z,30.42
2019-03-08T13:48:57.739Z,29.25
2019-03-08T13:53:03.612Z,28.77
2019-03-08T13:57:09.312Z,24.48
2019-03-08T14:01:16.960Z,24.47
2019-03-08T14:05:22.735Z,24.75
2019-03-08T14:09:28.410Z,25.31
2019-03-08T14:13:34.109Z,22.57
2019-03-08T14:17:39.811Z,23.21
2019-03-08T14:21:45.539Z,24.94
2019-03-08T14:25:51.250Z,30.25
2019-03-08T14:29:59.234Z,33.12
2019-03-08T14:34:04.559Z,34.25
2019-03-08T14:38:10.260Z,35.57
2019-03-08T14:42:17.669Z,37.00
2019-03-08T14:46:29.045Z,36.38
2019-03-08T14:50:35.516Z,35.48
2019-03-08T14:54:45.999Z,35.22
2019-03-08T14:58:49.510Z,32.64
2019-03-08T15:02:55.219Z,31.78
2019-03-08T15:07:01.284Z,30.96
2019-03-08T15:11:08.344Z,32.13
2019-03-08T15:15:16.855Z,32.20
2019-03-08T15:19:22.557Z,31.96
2019-03-08T15:23:28.320Z,31.67
2019-03-08T15:27:34.569Z,32.37
2019-03-08T15:32:16.834Z,32.87
2019-03-08T15:36:23.549Z,32.02
2019-03-08T15:40:33.199Z,32.19
2019-03-08T15:44:54.534Z,32.16
2019-03-08T15:49:00.403Z,32.89
2019-03-08T15:57:31.200Z,32.92
2019-03-08T16:01:36.961Z,33.23
2019-03-08T16:05:42.663Z,33.08
2019-03-08T16:09:48.644Z,32.43
2019-03-08T16:13:54.409Z,32.49
2019-03-08T16:18:00.231Z,33.50
2019-03-08T16:22:06.065Z,33.48
2019-03-08T16:30:47.755Z,33.54
2019-03-08T16:34:54.203Z,33.40
2019-03-08T16:39:03.925Z,33.68
2019-03-08T16:43:15.135Z,34.25
2019-03-08T16:47:42.596Z,34.33
2019-03-08T16:52:03.168Z,34.24
2019-03-08T16:56:16.233Z,33.74
2019-03-08T17:00:35.598Z,34.13
2019-03-08T17:04:41.075Z,34.64
2019-03-08T17:08:57.480Z,34.66
2019-03-08T17:13:03.057Z,34.46
2019-03-08T17:17:10.492Z,34.57
2019-03-08T17:21:17.835Z,34.66
2019-03-08T17:25:25.166Z,34.74
2019-03-08T17:29:35.157Z,34.90
2019-03-08T17:33:42.495Z,35.00
2019-03-08T17:37:49.816Z,35.25
2019-03-08T17:41:57.152Z,35.37
2019-03-08T17:46:10.879Z,35.58
2019-03-08T17:50:16.496Z,36.33
2019-03-08T17:54:42.007Z,37.28
2019-03-08T17:58:49.348Z,37.40
2019-03-08T18:03:12.543Z,39.21
2019-03-08T18:07:34.989Z,39.56
2019-03-08T18:11:52.205Z,38.96
2019-03-08T18:16:02.578Z,37.43
2019-03-08T18:20:16.757Z,40.78
2019-03-08T18:24:30.194Z,40.34
2019-03-08T18:28:42.985Z,41.31
2019-03-08T18:33:18.876Z,40.81
2019-03-08T18:37:36.229Z,41.91
2019-03-08T18:41:46.282Z,41.14
2019-03-08T18:46:02.188Z,42.06
2019-03-08T18:50:09.051Z,42.52
2019-03-08T18:54:32.023Z,41.13
2019-03-08T18:58:42.044Z,43.08
2019-03-08T19:03:05.223Z,39.27
2019-03-08T19:07:10.716Z,39.67
2019-03-08T19:11:18.198Z,39.99
2019-03-08T19:15:25.537Z,39.12
2019-03-08T19:19:32.943Z,37.00
2019-03-08T19:23:46.517Z,38.05
2019-03-08T19:27:54.047Z,37.60
2019-03-08T19:32:16.036Z,37.81
2019-03-08T19:36:29.376Z,39.60
2019-03-08T19:40:34.852Z,41.49
2019-03-08T19:44:46.208Z,43.03
2019-03-08T19:49:10.807Z,39.89
2019-03-08T19:53:23.994Z,42.57
2019-03-08T19:58:17.030Z,41.80
2019-03-08T20:02:42.297Z,40.16
2019-03-08T20:06:48.832Z,42.02
2019-03-08T20:11:09.461Z,40.13
2019-03-08T20:15:20.040Z,40.63
2019-03-08T20:19:27.451Z,38.91
2019-03-08T20:28:34.438Z,38.25
2019-03-08T20:32:44.307Z,38.45
2019-03-08T20:37:16.979Z,38.64
2019-03-08T20:41:24.389Z,38.35
2019-03-08T20:45:41.517Z,38.97
2019-03-08T20:49:47.271Z,39.11
2019-03-08T20:53:52.976Z,39.63
2019-03-08T20:58:16.737Z,39.67
2019-03-08T21:02:22.640Z,39.82
2019-03-08T21:06:28.448Z,40.10
2019-03-08T21:10:34.149Z,40.08
2019-03-08T21:14:39.914Z,39.98
2019-03-08T21:19:02.930Z,40.13
2019-03-08T21:23:08.590Z,39.85
2019-03-08T21:27:14.342Z,40.18
2019-03-08T21:31:20.114Z,40.44
2019-03-08T21:35:25.789Z,40.19
2019-03-08T21:39:31.487Z,39.72
2019-03-08T21:43:37.205Z,39.38
2019-03-08T21:47:43.941Z,39.42
2019-03-08T21:51:49.902Z,39.07
2019-03-08T21:55:55.619Z,38.94
2019-03-08T22:00:01.315Z,39.00
2019-03-08T22:04:19.322Z,38.67
2019-03-08T22:08:25.015Z,38.92
2019-03-08T22:12:30.730Z,38.77
2019-03-08T22:16:36.454Z,39.09
2019-03-08T22:20:42.202Z,39.17
2019-03-08T22:24:47.895Z,39.51
2019-03-08T22:28:53.580Z,40.23
2019-03-08T22:32:59.289Z,40.36
2019-03-08T22:37:06.164Z,40.22
2019-03-08T22:41:11.886Z,40.43
2019-03-08T22:45:17.633Z,40.88
2019-03-08T22:49:23.325Z,41.19
2019-03-08T22:53:29.023Z,41.37
2019-03-08T22:57:35.783Z,42.00
2019-03-08T23:01:43.378Z,42.16
2019-03-08T23:05:49.141Z,42.15
2019-03-08T23:09:54.914Z,42.32
2019-03-08T23:14:00.606Z,42.55
2019-03-08T23:18:06.468Z,42.51
2019-03-08T23:22:12.165Z,42.34
2019-03-08T23:26:17.842Z,42.19
2019-03-08T23:30:25.200Z,42.21
2019-03-08T23:34:30.890Z,43.11
2019-03-08T23:38:36.587Z,43.19
2019-03-08T23:42:42.354Z,43.36
2019-03-08T23:46:48.031Z,43.35
2019-03-08T23:50:54.007Z,43.89
2019-03-08T23:54:59.702Z,43.72
2019-03-08T23:59:05.537Z,43.32
